Time;durP1;ratioP1;P1;durP2;ratioP2;P2;SDS_P1;SDS_P2;PMS_P1;PMS_P2;Temp;Humidity;BMP_temperature;BMP_pressure;BME280_temperature;BME280_humidity;BME280_pressure;Samples;Min_cycle;Max_cycle;Signal;HPM_P1;HPM_P2
2022/10/30 00:00:19;;;;;;;22.92;8.98;;;;;;;14.07;100.00;100849.31;5192628;28;20033;-74
2022/10/30 00:02:49;;;;;;;22.13;9.77;;;;;;;14.10;100.00;100849.16;5189057;28;20030;-73
2022/10/30 00:05:20;;;;;;;20.63;8.82;;;;;;;14.09;100.00;100852.72;5190695;28;20029;-73
2022/10/30 00:07:50;;;;;;;15.63;7.78;;;;;;;14.09;100.00;100848.31;5190776;28;20132;-74
2022/10/30 00:10:21;;;;;;;20.58;8.18;;;;;;;14.09;100.00;100845.69;5185600;28;20048;-73
2022/10/30 00:12:52;;;;;;;16.48;8.10;;;;;;;14.20;100.00;100845.22;5188261;28;20022;-75
2022/10/30 00:15:22;;;;;;;19.50;7.93;;;;;;;14.11;100.00;100850.88;5187432;28;20397;-74
2022/10/30 00:17:53;;;;;;;18.52;7.93;;;;;;;14.18;100.00;100841.81;5186488;28;20296;-73
2022/10/30 00:20:23;;;;;;;20.08;8.10;;;;;;;14.08;100.00;100836.09;5185785;28;20037;-74
2022/10/30 00:22:53;;;;;;;15.98;7.05;;;;;;;14.17;100.00;100821.69;5188986;28;20398;-75
2022/10/30 00:25:23;;;;;;;18.17;8.60;;;;;;;14.28;100.00;100843.09;5187178;28;20056;-73
2022/10/30 00:27:54;;;;;;;19.52;8.70;;;;;;;14.29;100.00;100850.06;5191061;28;20053;-74
2022/10/30 00:30:24;;;;;;;21.43;8.63;;;;;;;14.30;100.00;100854.41;5176630;28;20686;-74
2022/10/30 00:32:54;;;;;;;20.75;9.00;;;;;;;14.32;100.00;100845.53;5185060;28;20711;-74
2022/10/30 00:35:25;;;;;;;23.40;9.13;;;;;;;14.29;100.00;100850.91;5189469;28;20028;-75
2022/10/30 00:37:55;;;;;;;24.65;9.30;;;;;;;14.25;100.00;100854.59;5189560;28;20029;-74
2022/10/30 00:40:25;;;;;;;18.88;8.52;;;;;;;14.24;100.00;100852.91;5185152;28;20022;-74
2022/10/30 00:42:55;;;;;;;16.23;8.05;;;;;;;14.26;100.00;100856.31;5191582;28;20022;-73
2022/10/30 00:45:26;;;;;;;19.60;8.27;;;;;;;14.28;100.00;100854.47;5187848;28;20523;-74
2022/10/30 00:48:01;;;;;;;18.65;9.32;;;;;;;14.17;100.00;100850.63;5196539;28;20103;-75
2022/10/30 00:50:35;;;;;;;21.17;8.82;;;;;;;14.18;100.00;100862.84;5191835;28;20060;-74
2022/10/30 00:53:10;;;;;;;20.23;9.10;;;;;;;14.24;100.00;100852.91;5192163;28;20088;-73
2022/10/30 00:55:45;;;;;;;22.95;9.52;;;;;;;14.27;100.00;100851.91;5192563;28;20427;-74
2022/10/30 00:58:19;;;;;;;20.90;9.27;;;;;;;14.30;100.00;100852.63;5192761;28;20029;-73
2022/10/30 01:00:54;;;;;;;16.70;8.52;;;;;;;14.43;100.00;100850.28;5193224;28;20510;-74
2022/10/30 01:03:26;;;;;;;20.77;9.35;;;;;;;14.53;100.00;100859.44;5193219;28;20136;-73
2022/10/30 01:06:01;;;;;;;18.98;9.02;;;;;;;14.46;100.00;100856.22;5194451;28;20025;-73
2022/10/30 01:08:32;;;;;;;21.27;9.07;;;;;;;14.43;100.00;100852.91;5189539;28;20032;-75
2022/10/30 01:11:04;;;;;;;14.40;7.30;;;;;;;14.44;100.00;100852.81;5190396;28;20031;-75
2022/10/30 01:13:36;;;;;;;20.15;8.38;;;;;;;14.32;100.00;100844.66;5189759;28;20034;-75
2022/10/30 01:16:07;;;;;;;18.02;8.63;;;;;;;14.18;100.00;100839.19;5190278;28;20037;-74
2022/10/30 01:18:52;;;;;;;19.17;9.07;;;;;;;14.21;100.00;100844.28;5190434;28;20447;-74
2022/10/30 01:21:41;;;;;;;22.47;10.13;;;;;;;14.10;100.00;100836.03;5193244;28;20334;-74
2022/10/30 01:24:11;;;;;;;19.58;9.00;;;;;;;14.18;100.00;100828.66;5190267;28;20269;-74
2022/10/30 01:26:51;;;;;;;19.33;9.17;;;;;;;14.17;100.00;100825.19;5193129;28;20026;-73
2022/10/30 01:29:39;;;;;;;15.95;8.82;;;;;;;14.14;100.00;100824.44;5187760;28;20277;-75
2022/10/30 01:32:14;;;;;;;17.75;8.93;;;;;;;14.09;100.00;100823.81;5188271;28;20028;-75
2022/10/30 01:35:01;;;;;;;15.80;9.18;;;;;;;13.98;100.00;100826.94;5192657;28;20033;-73
2022/10/30 01:37:32;;;;;;;23.23;9.27;;;;;;;13.89;100.00;100823.88;5188346;28;20029;-73
2022/10/30 01:40:07;;;;;;;20.23;9.82;;;;;;;13.94;100.00;100832.38;5181904;28;20037;-74
2022/10/30 01:42:45;;;;;;;20.57;9.07;;;;;;;13.91;100.00;100832.53;5187063;28;20156;-75
2022/10/30 01:45:22;;;;;;;20.70;8.35;;;;;;;13.84;100.00;100831.94;5186755;28;20427;-73
2022/10/30 01:48:23;;;;;;;22.95;9.70;;;;;;;13.81;100.00;100818.09;5190322;28;20104;-74
2022/10/30 01:51:24;;;;;;;22.17;9.57;;;;;;;13.85;100.00;100822.28;5191757;28;20040;-74
2022/10/30 01:54:17;;;;;;;20.02;9.00;;;;;;;13.86;100.00;100824.84;5192630;28;20082;-74
2022/10/30 01:57:00;;;;;;;19.75;9.80;;;;;;;13.91;100.00;100814.13;5191404;28;20051;-73
2022/10/30 01:59:36;;;;;;;27.58;10.75;;;;;;;13.93;100.00;100825.44;5184036;28;20057;-75
2022/10/30 02:02:07;;;;;;;21.23;10.02;;;;;;;13.85;100.00;100817.03;5188297;28;20171;-74
2022/10/30 02:04:38;;;;;;;19.48;9.38;;;;;;;13.82;100.00;100827.69;5190325;28;20069;-73
2022/10/30 02:07:10;;;;;;;23.80;9.88;;;;;;;13.75;100.00;100827.09;5187079;28;20029;-74
2022/10/30 02:09:41;;;;;;;18.73;8.70;;;;;;;13.79;100.00;100833.06;5186668;28;20037;-74
2022/10/30 02:12:12;;;;;;;18.38;8.77;;;;;;;13.66;100.00;100834.53;5190220;28;20044;-74
2022/10/30 02:14:48;;;;;;;21.63;9.35;;;;;;;13.71;100.00;100829.94;5186314;28;20112;-73
2022/10/30 02:17:19;;;;;;;22.58;8.70;;;;;;;13.69;100.00;100831.75;5188610;28;20053;-75
2022/10/30 02:19:50;;;;;;;21.25;9.23;;;;;;;13.76;100.00;100838.47;5192420;28;20514;-74
2022/10/30 02:22:20;;;;;;;21.35;8.68;;;;;;;13.62;100.00;100820.69;5190374;28;20033;-73
2022/10/30 02:24:50;;;;;;;17.52;8.52;;;;;;;13.63;100.00;100826.78;5193189;28;20519;-75
2022/10/30 02:27:21;;;;;;;20.25;9.05;;;;;;;13.54;100.00;100832.47;5191463;28;20032;-74
2022/10/30 02:29:51;;;;;;;20.38;8.35;;;;;;;13.59;100.00;100830.47;5183630;28;20588;-76
2022/10/30 02:32:21;;;;;;;21.30;9.10;;;;;;;13.46;100.00;100830.16;5187919;28;20083;-74
2022/10/30 02:34:51;;;;;;;22.13;9.52;;;;;;;13.44;100.00;100823.25;5191914;28;20029;-74
2022/10/30 02:37:23;;;;;;;19.45;9.15;;;;;;;13.27;100.00;100833.63;5186511;28;20514;-74
2022/10/30 02:39:53;;;;;;;20.63;8.88;;;;;;;13.22;100.00;100836.44;5192080;28;20245;-75
2022/10/30 02:42:24;;;;;;;15.80;7.72;;;;;;;13.30;100.00;100829.09;5185282;28;20037;-76
2022/10/30 02:44:54;;;;;;;19.75;8.40;;;;;;;13.33;100.00;100828.09;5189164;28;20040;-74
2022/10/30 02:47:24;;;;;;;16.67;7.32;;;;;;;13.22;100.00;100835.59;5187138;28;20153;-74
2022/10/30 02:49:55;;;;;;;19.75;8.77;;;;;;;13.14;100.00;100840.28;5194282;28;20071;-74
2022/10/30 02:52:25;;;;;;;15.57;7.45;;;;;;;13.11;100.00;100840.44;5188256;28;20033;-74
2022/10/30 02:54:55;;;;;;;23.45;8.20;;;;;;;13.09;100.00;100839.66;5192269;28;20025;-74
2022/10/30 02:57:25;;;;;;;16.42;7.93;;;;;;;13.11;100.00;100833.44;5189903;28;20033;-75
2022/10/30 02:59:56;;;;;;;18.73;8.02;;;;;;;13.10;100.00;100836.94;5207942;22;20407;-73
2022/10/30 03:02:26;;;;;;;18.33;8.15;;;;;;;13.02;100.00;100848.66;5195670;28;20029;-73
2022/10/30 03:04:57;;;;;;;23.38;7.82;;;;;;;12.98;100.00;100841.84;5197297;28;20029;-73
2022/10/30 03:07:27;;;;;;;17.75;7.65;;;;;;;13.03;100.00;100845.16;5192572;28;20055;-73
2022/10/30 03:09:57;;;;;;;19.65;8.18;;;;;;;13.07;100.00;100841.47;5175563;28;20073;-73
2022/10/30 03:12:27;;;;;;;23.80;8.40;;;;;;;12.99;100.00;100847.03;5177345;28;20033;-73
2022/10/30 03:14:58;;;;;;;16.48;7.85;;;;;;;13.07;100.00;100837.06;5170444;28;20037;-73
2022/10/30 03:17:28;;;;;;;15.27;7.00;;;;;;;13.06;100.00;100842.41;5169252;28;20312;-73
2022/10/30 03:19:59;;;;;;;18.15;6.72;;;;;;;12.97;100.00;100850.63;5167399;28;20289;-73
2022/10/30 03:22:29;;;;;;;20.00;7.40;;;;;;;12.83;100.00;100839.81;5169744;28;20037;-73
2022/10/30 03:24:59;;;;;;;18.52;7.63;;;;;;;12.79;100.00;100850.50;5167219;28;20038;-73
2022/10/30 03:27:30;;;;;;;16.02;7.18;;;;;;;12.81;100.00;100840.81;5168376;28;20400;-73
2022/10/30 03:30:00;;;;;;;16.75;6.85;;;;;;;12.91;100.00;100845.63;5169115;28;20030;-73
2022/10/30 03:32:30;;;;;;;23.05;7.00;;;;;;;12.74;100.00;100839.34;5169391;28;20533;-73
2022/10/30 03:35:01;;;;;;;15.25;7.10;;;;;;;12.75;100.00;100834.03;5168203;28;20037;-73
2022/10/30 03:37:31;;;;;;;15.88;6.85;;;;;;;12.83;100.00;100833.72;5173390;28;20545;-73
2022/10/30 03:40:01;;;;;;;14.80;6.97;;;;;;;12.75;100.00;100841.91;5169823;28;20022;-73
2022/10/30 03:42:32;;;;;;;17.83;7.15;;;;;;;12.73;100.00;100835.00;5174865;28;20034;-73
2022/10/30 03:45:02;;;;;;;15.63;7.18;;;;;;;12.76;100.00;100842.75;5169134;28;20382;-73
2022/10/30 03:47:32;;;;;;;17.58;7.45;;;;;;;12.83;100.00;100821.44;5167925;28;20037;-73
2022/10/30 03:50:03;;;;;;;14.50;7.23;;;;;;;12.72;100.00;100818.44;5167111;28;20092;-73
2022/10/30 03:52:33;;;;;;;17.80;7.32;;;;;;;12.75;100.00;100830.53;5169766;28;20335;-73
2022/10/30 03:55:04;;;;;;;20.73;7.40;;;;;;;12.80;100.00;100824.19;5167496;28;20104;-73
2022/10/30 03:57:37;;;;;;;22.75;7.15;;;;;;;12.84;100.00;100836.28;5171894;28;20282;-73
2022/10/30 04:00:08;;;;;;;15.95;7.05;;;;;;;12.79;100.00;100829.53;5168644;28;20038;-72
2022/10/30 04:02:38;;;;;;;14.57;7.20;;;;;;;12.77;100.00;100823.50;5169720;28;20021;-73
2022/10/30 04:05:08;;;;;;;22.05;7.03;;;;;;;12.84;100.00;100817.91;5173214;28;20053;-73
2022/10/30 04:07:39;;;;;;;17.27;6.85;;;;;;;12.91;100.00;100819.38;5172714;28;20029;-73
2022/10/30 04:10:11;;;;;;;14.63;6.72;;;;;;;12.87;100.00;100820.44;5169126;28;20137;-73
2022/10/30 04:12:41;;;;;;;13.80;6.13;;;;;;;12.95;100.00;100826.25;5171729;28;20424;-73
2022/10/30 04:15:11;;;;;;;18.97;6.97;;;;;;;12.93;100.00;100834.16;5170631;28;20022;-73
2022/10/30 04:17:48;;;;;;;17.30;7.07;;;;;;;12.90;100.00;100833.41;5169847;28;20304;-73
2022/10/30 04:20:19;;;;;;;12.10;6.13;;;;;;;12.92;100.00;100836.84;5174765;28;20029;-73
2022/10/30 04:22:57;;;;;;;13.57;6.72;;;;;;;12.85;100.00;100835.34;5171666;28;20544;-72
2022/10/30 04:25:29;;;;;;;17.55;6.88;;;;;;;12.80;100.00;100828.63;5168994;28;20038;-73
2022/10/30 04:27:59;;;;;;;14.23;6.20;;;;;;;12.71;100.00;100832.47;5175002;28;20490;-73
2022/10/30 04:30:34;;;;;;;17.20;6.70;;;;;;;12.67;100.00;100828.22;5175323;28;20236;-73
2022/10/30 04:33:05;;;;;;;14.90;6.40;;;;;;;12.74;100.00;100832.34;5174060;28;20501;-73
2022/10/30 04:35:37;;;;;;;15.80;6.55;;;;;;;12.61;100.00;100833.72;5178390;28;20400;-73
2022/10/30 04:38:10;;;;;;;14.82;5.93;;;;;;;12.73;100.00;100830.63;5176270;28;20158;-72
2022/10/30 04:40:42;;;;;;;12.25;5.38;;;;;;;12.69;100.00;100843.91;5178059;28;20060;-73
2022/10/30 04:43:12;;;;;;;13.02;6.18;;;;;;;12.64;100.00;100836.22;5176566;28;20060;-73
2022/10/30 04:45:43;;;;;;;15.30;5.57;;;;;;;12.58;100.00;100838.22;5172096;28;20727;-73
2022/10/30 04:48:15;;;;;;;14.60;5.90;;;;;;;12.45;100.00;100844.88;5176681;28;20029;-73
2022/10/30 04:50:46;;;;;;;11.80;6.00;;;;;;;12.38;100.00;100848.66;5174909;28;20033;-73
2022/10/30 04:53:17;;;;;;;9.85;5.28;;;;;;;12.44;100.00;100836.16;5172049;28;20480;-73
2022/10/30 04:55:52;;;;;;;14.45;6.43;;;;;;;12.39;100.00;100843.34;5170853;28;20026;-73
2022/10/30 04:58:23;;;;;;;18.55;6.05;;;;;;;12.37;100.00;100842.56;5171059;28;20130;-73
2022/10/30 05:00:53;;;;;;;12.77;5.63;;;;;;;12.35;100.00;100840.91;5177224;28;20113;-73
2022/10/30 05:03:23;;;;;;;13.50;5.30;;;;;;;12.37;100.00;100837.31;5178682;28;20022;-73
2022/10/30 05:06:00;;;;;;;11.40;6.05;;;;;;;12.25;100.00;100837.78;5176004;28;20057;-73
2022/10/30 05:08:30;;;;;;;13.60;5.78;;;;;;;12.36;100.00;100830.38;5175408;28;20037;-73
2022/10/30 05:11:04;;;;;;;14.35;6.30;;;;;;;12.21;100.00;100840.56;5175607;28;20246;-73
2022/10/30 05:13:34;;;;;;;14.90;5.70;;;;;;;12.20;100.00;100837.13;5174519;28;20033;-73
2022/10/30 05:16:05;;;;;;;17.85;6.40;;;;;;;12.16;100.00;100838.13;5172321;28;20495;-72
2022/10/30 05:18:35;;;;;;;13.25;6.38;;;;;;;12.15;100.00;100846.06;5172108;28;20133;-73
2022/10/30 05:21:05;;;;;;;12.70;6.17;;;;;;;12.08;100.00;100850.66;5172171;28;20022;-73
2022/10/30 05:23:35;;;;;;;13.43;6.03;;;;;;;12.11;100.00;100847.91;5169703;28;20786;-73
2022/10/30 05:26:06;;;;;;;13.57;6.38;;;;;;;12.10;100.00;100848.84;5171566;28;20022;-72
2022/10/30 05:28:36;;;;;;;14.75;6.68;;;;;;;12.12;100.00;100841.78;5169668;28;20080;-73
2022/10/30 05:31:06;;;;;;;10.52;5.78;;;;;;;12.12;100.00;100841.78;5170275;28;20030;-72
2022/10/30 05:33:37;;;;;;;15.15;6.00;;;;;;;12.09;100.00;100838.44;5176444;28;20022;-73
2022/10/30 05:36:07;;;;;;;14.13;6.22;;;;;;;12.08;100.00;100837.56;5172152;28;20039;-73
2022/10/30 05:38:38;;;;;;;16.48;6.10;;;;;;;12.10;100.00;100833.13;5172763;28;20025;-73
2022/10/30 05:41:08;;;;;;;13.73;6.38;;;;;;;12.07;100.00;100843.72;5175015;28;20400;-73
2022/10/30 05:43:38;;;;;;;14.85;5.97;;;;;;;12.09;100.00;100839.28;5171804;28;20040;-72
2022/10/30 05:46:08;;;;;;;13.43;6.03;;;;;;;11.99;100.00;100840.50;5168451;28;20033;-73
2022/10/30 05:48:39;;;;;;;12.73;6.10;;;;;;;11.94;100.00;100847.69;5169043;28;20293;-73
2022/10/30 05:51:09;;;;;;;12.30;5.60;;;;;;;11.94;100.00;100847.69;5171412;28;20030;-73
2022/10/30 05:53:39;;;;;;;12.00;5.80;;;;;;;11.96;100.00;100853.72;5168527;28;20495;-73
2022/10/30 05:56:10;;;;;;;15.40;6.25;;;;;;;11.91;100.00;100850.44;5171607;28;20033;-73
2022/10/30 05:58:40;;;;;;;14.18;5.75;;;;;;;11.89;100.00;100848.75;5170379;28;20044;-73
2022/10/30 06:01:10;;;;;;;14.35;5.88;;;;;;;12.09;100.00;100836.66;5169279;28;20305;-72
2022/10/30 06:03:40;;;;;;;13.05;4.70;;;;;;;11.93;100.00;100825.03;5177901;28;20025;-73
2022/10/30 06:06:11;;;;;;;14.13;5.43;;;;;;;11.70;100.00;100838.13;5172359;28;20083;-73
2022/10/30 06:08:41;;;;;;;17.15;5.60;;;;;;;11.55;100.00;100849.09;5176173;28;20037;-73
2022/10/30 06:11:11;;;;;;;12.70;6.05;;;;;;;11.64;100.00;100851.41;5174499;28;20065;-73
2022/10/30 06:13:42;;;;;;;13.07;6.27;;;;;;;11.66;100.00;100852.25;5169535;28;20531;-73
2022/10/30 06:16:12;;;;;;;14.85;5.47;;;;;;;11.82;100.00;100858.59;5169865;28;20770;-73
2022/10/30 06:18:42;;;;;;;13.20;5.85;;;;;;;11.74;100.00;100855.44;5168816;28;20022;-73
2022/10/30 06:21:12;;;;;;;16.00;5.93;;;;;;;11.81;100.00;100862.13;5170803;28;20025;-73
2022/10/30 06:23:43;;;;;;;16.92;5.82;;;;;;;11.72;100.00;100852.00;5169647;28;20036;-73
2022/10/30 06:26:13;;;;;;;13.10;5.53;;;;;;;11.79;100.00;100855.25;5171105;28;20108;-73
2022/10/30 06:28:43;;;;;;;13.95;5.93;;;;;;;11.94;100.00;100866.03;5168912;28;20032;-73
2022/10/30 06:31:13;;;;;;;15.25;6.03;;;;;;;11.88;100.00;100874.13;5176018;28;20069;-72
2022/10/30 06:33:44;;;;;;;13.70;5.30;;;;;;;11.94;100.00;100870.44;5176820;28;20029;-73
2022/10/30 06:36:16;;;;;;;13.90;5.70;;;;;;;11.98;100.00;100866.78;5169752;28;20277;-72
2022/10/30 06:38:46;;;;;;;11.25;5.28;;;;;;;12.14;100.00;100874.00;5173254;28;20280;-73
2022/10/30 06:41:16;;;;;;;11.70;5.13;;;;;;;12.19;100.00;100884.31;5172267;28;20036;-72
2022/10/30 06:43:47;;;;;;;15.68;5.35;;;;;;;12.10;100.00;100885.50;5167852;28;20156;-73
2022/10/30 06:46:17;;;;;;;14.20;4.80;;;;;;;12.33;100.00;100882.88;5168397;28;20022;-73
2022/10/30 06:48:47;;;;;;;12.10;4.70;;;;;;;12.32;100.00;100888.19;5167719;28;20116;-73
2022/10/30 06:51:18;;;;;;;10.32;4.93;;;;;;;12.36;100.00;100893.28;5168650;28;20441;-73
2022/10/30 06:53:48;;;;;;;20.50;5.15;;;;;;;12.37;100.00;100889.75;5168782;28;20480;-73
2022/10/30 06:56:18;;;;;;;11.57;4.82;;;;;;;12.41;100.00;100896.56;5168784;28;20084;-72
2022/10/30 06:58:48;;;;;;;15.48;5.65;;;;;;;12.45;100.00;100895.53;5170403;28;20026;-73
2022/10/30 07:01:19;;;;;;;11.57;4.67;;;;;;;12.63;100.00;100892.22;5172533;28;20307;-73
2022/10/30 07:03:49;;;;;;;11.55;5.13;;;;;;;12.51;100.00;100902.31;5173199;28;20300;-73
2022/10/30 07:06:19;;;;;;;10.05;4.20;;;;;;;12.58;100.00;100906.41;5173496;28;20141;-73
2022/10/30 07:08:49;;;;;;;10.67;4.13;;;;;;;12.89;100.00;100910.41;5172997;28;20046;-73
2022/10/30 07:11:20;;;;;;;12.80;4.43;;;;;;;12.71;100.00;100916.38;5173152;28;20285;-73
2022/10/30 07:13:50;;;;;;;12.40;4.45;;;;;;;12.79;100.00;100910.84;5165871;28;20022;-73
2022/10/30 07:16:20;;;;;;;16.88;4.32;;;;;;;12.83;100.00;100921.13;5169533;28;20121;-73
2022/10/30 07:18:51;;;;;;;12.97;4.43;;;;;;;13.00;100.00;100923.97;5166431;28;20033;-73
2022/10/30 07:21:21;;;;;;;11.70;3.60;;;;;;;13.17;100.00;100919.78;5168101;28;20388;-73
2022/10/30 07:23:51;;;;;;;15.27;4.13;;;;;;;13.19;100.00;100922.31;5173962;28;20038;-73
2022/10/30 07:26:22;;;;;;;11.88;3.75;;;;;;;13.32;100.00;100915.66;5172246;28;20523;-73
2022/10/30 07:28:52;;;;;;;9.57;3.67;;;;;;;13.57;100.00;100922.44;5167133;28;20105;-73
2022/10/30 07:31:22;;;;;;;11.17;3.90;;;;;;;13.64;100.00;100923.91;5172198;28;20274;-74
2022/10/30 07:33:52;;;;;;;13.13;4.68;;;;;;;14.05;100.00;100925.59;5173061;28;20315;-74
2022/10/30 07:36:23;;;;;;;10.77;4.40;;;;;;;14.15;100.00;100931.28;5176965;28;20363;-73
2022/10/30 07:38:53;;;;;;;14.93;4.80;;;;;;;14.56;100.00;100923.28;5170987;28;20038;-73
2022/10/30 07:41:23;;;;;;;11.38;4.13;;;;;;;15.28;100.00;100935.56;5171429;28;20026;-73
2022/10/30 07:43:54;;;;;;;9.93;4.03;;;;;;;15.86;100.00;100924.69;5164519;28;20396;-74
2022/10/30 07:46:24;;;;;;;12.20;4.10;;;;;;;16.16;100.00;100933.66;5171075;28;20037;-73
2022/10/30 07:48:55;;;;;;;8.95;3.25;;;;;;;17.43;100.00;100923.88;5167686;28;20034;-73
2022/10/30 07:51:25;;;;;;;10.95;3.35;;;;;;;18.11;96.34;100927.72;5170276;28;20511;-73
2022/10/30 07:53:56;;;;;;;14.07;3.70;;;;;;;19.17;94.82;100932.41;5174574;28;20069;-73
2022/10/30 07:56:26;;;;;;;9.17;2.87;;;;;;;19.49;88.27;100931.13;5172240;28;20384;-73
2022/10/30 07:58:56;;;;;;;8.53;2.83;;;;;;;20.61;87.65;100929.53;5171089;28;20281;-73
2022/10/30 08:01:26;;;;;;;12.10;3.10;;;;;;;20.68;83.33;100928.97;5178984;28;20283;-73
2022/10/30 08:03:57;;;;;;;8.67;2.93;;;;;;;20.82;85.82;100931.47;5175418;28;20312;-73
2022/10/30 08:06:27;;;;;;;13.63;2.88;;;;;;;20.37;86.19;100941.88;5177843;28;20300;-73
2022/10/30 08:08:57;;;;;;;8.97;2.97;;;;;;;19.66;85.72;100951.22;5174635;28;20084;-74
2022/10/30 08:11:27;;;;;;;8.73;2.70;;;;;;;20.07;88.19;100942.19;5172228;28;20269;-74
2022/10/30 08:13:58;;;;;;;7.43;2.53;;;;;;;21.23;86.59;100937.34;5171450;28;20340;-72
2022/10/30 08:16:28;;;;;;;10.88;2.67;;;;;;;21.26;83.86;100948.59;5172741;28;20283;-73
2022/10/30 08:18:59;;;;;;;7.85;2.90;;;;;;;20.86;84.18;100952.47;5170585;28;20030;-74
2022/10/30 08:21:29;;;;;;;7.50;2.40;;;;;;;20.46;86.92;100952.69;5173008;28;20037;-74
2022/10/30 08:23:59;;;;;;;9.67;3.07;;;;;;;20.48;89.21;100953.44;5172010;28;20114;-74
2022/10/30 08:26:30;;;;;;;11.95;3.30;;;;;;;20.85;88.61;100949.91;5171296;28;20346;-74
2022/10/30 08:29:00;;;;;;;11.02;2.80;;;;;;;20.58;91.10;100948.31;5169939;28;20038;-74
2022/10/30 08:31:30;;;;;;;10.82;3.17;;;;;;;20.95;88.71;100945.63;5176538;28;20030;-74
2022/10/30 08:34:01;;;;;;;9.07;2.85;;;;;;;21.77;83.34;100941.25;5171794;28;20029;-74
2022/10/30 08:36:31;;;;;;;10.20;3.20;;;;;;;21.23;85.56;100948.00;5179399;28;20057;-74
2022/10/30 08:39:02;;;;;;;14.40;2.80;;;;;;;21.36;84.39;100924.81;5173060;28;20492;-74
2022/10/30 08:41:33;;;;;;;17.20;3.17;;;;;;;20.55;87.88;100932.59;5174559;28;20030;-74
2022/10/30 08:44:03;;;;;;;8.63;2.67;;;;;;;19.97;89.99;100932.28;5173163;28;20084;-74
2022/10/30 08:46:33;;;;;;;12.60;3.28;;;;;;;19.32;94.83;100934.06;5171592;28;20284;-74
2022/10/30 08:49:04;;;;;;;12.10;4.00;;;;;;;19.36;94.20;100934.69;5170565;28;20079;-74
2022/10/30 08:51:34;;;;;;;15.65;3.83;;;;;;;19.26;97.42;100918.53;5173088;28;20346;-73
2022/10/30 08:54:04;;;;;;;13.23;3.33;;;;;;;19.45;97.18;100929.63;5169351;28;20046;-74
2022/10/30 08:56:35;;;;;;;11.80;3.50;;;;;;;19.47;97.25;100924.22;5167618;28;20048;-73
2022/10/30 08:59:05;;;;;;;14.55;3.55;;;;;;;19.46;99.47;100919.88;5185887;23;20341;-77
2022/10/30 09:01:35;;;;;;;10.95;3.65;;;;;;;19.56;98.04;100919.16;5171926;28;20551;-76
2022/10/30 09:04:06;;;;;;;11.98;3.55;;;;;;;19.63;98.69;100919.59;5178036;28;20249;-77
2022/10/30 09:06:36;;;;;;;15.82;3.50;;;;;;;19.64;98.01;100914.19;5178735;28;20029;-77
2022/10/30 09:09:06;;;;;;;12.35;3.63;;;;;;;19.67;99.58;100913.13;5176376;28;20313;-76
2022/10/30 09:11:36;;;;;;;14.20;3.95;;;;;;;19.57;99.33;100910.25;5157635;28;20046;-77
2022/10/30 09:14:07;;;;;;;9.93;2.87;;;;;;;19.62;100.00;100910.78;5156466;28;20034;-74
2022/10/30 09:16:37;;;;;;;13.23;3.40;;;;;;;19.57;100.00;100901.44;5155081;28;20385;-77
2022/10/30 09:19:09;;;;;;;13.80;3.90;;;;;;;19.50;100.00;100906.31;5156754;28;20128;-74
2022/10/30 09:21:39;;;;;;;13.85;3.58;;;;;;;19.67;100.00;100897.22;5155779;28;20030;-76
2022/10/30 09:24:09;;;;;;;16.33;3.90;;;;;;;19.68;100.00;100899.78;5155279;28;20026;-76
2022/10/30 09:26:39;;;;;;;10.38;3.25;;;;;;;19.75;98.74;100909.00;5157203;28;20061;-77
2022/10/30 09:29:10;;;;;;;9.77;3.10;;;;;;;19.88;97.68;100907.22;5151531;28;20038;-77
2022/10/30 09:31:40;;;;;;;10.32;3.55;;;;;;;19.99;98.94;100904.66;5154723;28;20876;-76
2022/10/30 09:34:10;;;;;;;11.48;3.80;;;;;;;19.94;100.00;100903.31;5158379;28;20480;-76
2022/10/30 09:36:45;;;;;;;9.93;3.20;;;;;;;19.86;98.82;100906.47;5158399;28;20537;-76
2022/10/30 09:39:15;;;;;;;12.05;3.17;;;;;;;19.98;97.43;100907.44;5155760;28;20026;-77
2022/10/30 09:42:24;;;;;;;11.77;3.45;;;;;;;20.07;95.03;100910.34;5151444;28;20343;-77
2022/10/30 09:45:00;;;;;;;17.75;3.90;;;;;;;20.03;93.40;100916.81;5132838;28;20134;-77
2022/10/30 09:47:36;;;;;;;13.50;3.50;;;;;;;20.10;93.29;100920.75;5151903;28;20030;-77
2022/10/30 09:50:21;;;;;;;12.88;3.63;;;;;;;20.16;93.34;100927.44;5155708;28;20542;-77
2022/10/30 09:53:07;;;;;;;11.07;3.55;;;;;;;20.12;91.95;100920.66;5154436;28;20034;-77
2022/10/30 09:55:50;;;;;;;11.27;3.17;;;;;;;20.18;90.65;100921.06;5158561;28;20117;-77
2022/10/30 09:58:23;;;;;;;10.40;3.58;;;;;;;20.21;90.36;100923.53;5153525;28;20647;-77
2022/10/30 10:01:05;;;;;;;11.70;3.63;;;;;;;20.26;90.64;100917.91;5158471;28;20042;-77
2022/10/30 10:03:59;;;;;;;11.07;3.50;;;;;;;20.24;90.35;100925.94;5158026;28;20407;-77
2022/10/30 10:06:32;;;;;;;15.48;4.25;;;;;;;20.21;91.03;100922.66;5154525;28;20080;-77
2022/10/30 10:09:07;;;;;;;11.60;4.32;;;;;;;20.12;90.45;100915.34;5156572;28;20054;-77
2022/10/30 10:11:42;;;;;;;14.82;3.42;;;;;;;20.11;90.24;100916.31;5158329;28;20065;-77
2022/10/30 10:14:26;;;;;;;15.15;3.85;;;;;;;20.21;89.75;100920.88;5156934;28;20034;-77
2022/10/30 10:17:01;;;;;;;12.20;3.78;;;;;;;20.23;88.45;100921.59;5154489;28;20061;-77
2022/10/30 10:19:37;;;;;;;15.20;4.07;;;;;;;20.16;88.58;100917.66;5158118;28;20045;-77
2022/10/30 10:22:21;;;;;;;14.10;3.95;;;;;;;20.03;88.49;100914.19;5156270;28;20026;-76
2022/10/30 10:24:53;;;;;;;13.75;4.63;;;;;;;20.02;89.47;100912.47;5152799;28;20441;-76
2022/10/30 10:27:52;;;;;;;15.15;4.15;;;;;;;20.17;87.96;100927.34;5157144;28;20026;-77
2022/10/30 10:30:23;;;;;;;11.65;3.95;;;;;;;20.15;88.78;100913.31;5153529;28;20545;-77
2022/10/30 10:33:24;;;;;;;16.77;4.00;;;;;;;20.17;88.79;100923.81;5156268;28;20439;-77
2022/10/30 10:36:01;;;;;;;15.70;4.00;;;;;;;20.22;87.42;100916.38;5154373;28;20034;-75
2022/10/30 10:38:34;;;;;;;14.45;4.25;;;;;;;20.21;87.38;100920.88;5157037;28;20096;-77
2022/10/30 10:41:20;;;;;;;18.27;3.97;;;;;;;20.19;86.85;100922.78;5157505;28;20030;-76
2022/10/30 10:44:19;;;;;;;10.02;2.83;;;;;;;20.28;83.86;100921.28;5153824;28;20026;-77
2022/10/30 10:46:58;;;;;;;12.32;3.20;;;;;;;20.23;83.82;100913.63;5152446;28;20088;-77
2022/10/30 10:49:34;;;;;;;12.75;3.33;;;;;;;20.27;83.27;100915.13;5151610;28;20492;-77
2022/10/30 10:52:13;;;;;;;11.15;3.22;;;;;;;20.31;83.15;100911.28;5149914;28;20066;-77
2022/10/30 10:54:49;;;;;;;12.10;3.08;;;;;;;20.26;83.39;100912.59;5157744;28;20146;-75
2022/10/30 10:57:28;;;;;;;11.57;3.20;;;;;;;20.29;84.77;100910.53;5156093;28;20085;-77
2022/10/30 11:00:06;;;;;;;12.40;3.28;;;;;;;20.26;83.99;100908.09;5153199;28;20704;-76
2022/10/30 11:02:40;;;;;;;12.50;2.95;;;;;;;20.40;83.33;100888.53;5153673;28;20664;-76
2022/10/30 11:05:45;;;;;;;13.23;3.40;;;;;;;20.33;82.10;100893.44;5155560;28;20148;-76
2022/10/30 11:08:27;;;;;;;9.40;2.70;;;;;;;20.26;83.26;100894.00;5149148;28;20046;-77
2022/10/30 11:11:00;;;;;;;11.23;3.20;;;;;;;20.40;82.59;100889.41;5150196;28;20026;-77
2022/10/30 11:13:34;;;;;;;12.88;3.40;;;;;;;20.21;83.28;100888.13;5155247;28;20038;-77
2022/10/30 11:16:27;;;;;;;11.88;3.05;;;;;;;20.13;84.34;100885.19;5153890;28;20566;-75
2022/10/30 11:19:01;;;;;;;9.82;3.30;;;;;;;20.11;83.49;100887.94;5153526;28;20116;-77
2022/10/30 11:21:37;;;;;;;9.18;3.20;;;;;;;20.02;85.16;100893.91;5155564;28;20014;-76
2022/10/30 11:24:35;;;;;;;12.63;3.17;;;;;;;20.04;83.61;100891.97;5155676;28;20061;-76
2022/10/30 11:27:24;;;;;;;11.55;3.28;;;;;;;20.09;84.25;100884.53;5153427;28;20721;-76
2022/10/30 11:30:04;;;;;;;12.93;3.28;;;;;;;19.99;85.33;100894.06;5151726;28;20042;-77
2022/10/30 11:32:34;;;;;;;12.73;3.35;;;;;;;20.10;84.31;100896.03;5153476;28;20049;-76
2022/10/30 11:35:06;;;;;;;15.82;3.55;;;;;;;20.41;83.75;100877.81;5155293;28;20046;-76
2022/10/30 11:37:38;;;;;;;14.57;3.40;;;;;;;20.44;82.08;100880.25;5152233;28;20096;-76